KFNL/FNL METAR and TAF weather

Enter ICAO airport designator
Station Type Date Time Source
KFNL METAR 2022/12/08 11:56 UTC NOAA

KFNL 081156Z 36008KT 10SM OVC100 M03/M07 A2998 RMK AO2 SLP168 T10331067 11022 21072 55001 FZRANO


Station Type Date Time Source
KFNL Decoded METAR 2022/12/08 11:56 UTC NOAA

Fort Collins/Loveland, Fort Collins-Loveland Municipal Airport, CO, United States (KFNL) 40-27N 105-01W
Dec 08, 2022 - 06:56 AM EST / 2022.12.08 1156 UTC
Wind: from the N (360 degrees) at 9 MPH (8 KT):0
Visibility: 10 mile(s):0
Sky conditions: overcast
Temperature: 26.1 F (-3.3 C)
Windchill: 17 F (-8 C):1
Dew Point: 19.9 F (-6.7 C)
Relative Humidity: 77%
Pressure (altimeter): 29.98 in. Hg (1015 hPa)
Pressure tendency: 0.00 inches (0.1 hPa) lower than three hours ago
ob: KFNL 081156Z 36008KT 10SM OVC100 M03/M07 A2998 RMK AO2 SLP168 T10331067 11022 21072 55001 FZRANO
cycle: 12

Station Type Date Time Source
KFNL TAF UTC NOAA

Error!

Example: see airport list